Time;durP1;ratioP1;P1;durP2;ratioP2;P2;SDS_P1;SDS_P2;PMS_P1;PMS_P2;Temp;Humidity;BMP_temperature;BMP_pressure;BME280_temperature;BME280_humidity;BME280_pressure;Samples;Min_cycle;Max_cycle;Signal;HPM_P1;HPM_P2
2022/06/07 00:02:04;;;;;;;20.60;6.25;;;;;;;14.54;58.85;99415.16;5032491;28;20054;-72
2022/06/07 00:04:32;;;;;;;7.78;2.83;;;;;;;14.51;59.29;99412.28;5032710;28;20500;-68
2022/06/07 00:07:00;;;;;;;6.35;3.25;;;;;;;14.53;59.19;99419.13;5032723;28;20046;-68
2022/06/07 00:09:27;;;;;;;8.77;3.50;;;;;;;14.54;59.57;99414.34;5032696;28;20484;-68
2022/06/07 00:11:54;;;;;;;8.35;3.05;;;;;;;14.54;59.56;99419.94;5032783;28;20101;-68
2022/06/07 00:14:20;;;;;;;9.23;2.72;;;;;;;14.51;59.89;99417.88;5032775;28;20079;-72
2022/06/07 00:16:47;;;;;;;6.75;3.38;;;;;;;14.48;60.33;99415.81;5032714;28;20059;-72
2022/06/07 00:19:14;;;;;;;7.50;3.80;;;;;;;14.49;60.20;99420.22;5051284;28;20080;-72
2022/06/07 00:21:41;;;;;;;7.82;3.33;;;;;;;14.48;60.52;99422.19;5052607;28;20559;-72
2022/06/07 00:24:09;;;;;;;12.73;3.47;;;;;;;14.49;60.15;99417.41;5052539;28;20052;-72
2022/06/07 00:26:38;;;;;;;5.78;2.92;;;;;;;14.47;60.18;99422.56;5034878;28;20127;-72
2022/06/07 00:29:09;;;;;;;14.07;3.45;;;;;;;14.48;60.09;99415.81;5052153;28;20048;-72
2022/06/07 00:31:42;;;;;;;8.75;2.90;;;;;;;14.47;59.96;99423.38;5052509;28;20053;-72
2022/06/07 00:34:10;;;;;;;7.93;4.38;;;;;;;14.44;60.22;99417.69;5052974;28;20063;-72
2022/06/07 00:36:38;;;;;;;9.43;3.10;;;;;;;14.38;60.30;99421.91;5052715;28;20048;-72
2022/06/07 00:39:06;;;;;;;6.65;3.70;;;;;;;14.36;60.59;99418.69;5052274;28;20049;-72
2022/06/07 00:41:33;;;;;;;10.45;3.00;;;;;;;14.33;60.70;99416.63;5052474;28;20080;-72
2022/06/07 00:44:22;;;;;;;9.43;3.42;;;;;;;14.29;60.75;99427.69;5052363;28;20103;-72
2022/06/07 00:47:01;;;;;;;9.05;4.20;;;;;;;14.22;60.69;99421.06;5052230;28;20052;-76
2022/06/07 00:49:34;;;;;;;6.32;3.45;;;;;;;14.21;60.73;99430.66;5053704;28;20143;-71
2022/06/07 00:52:02;;;;;;;13.73;3.35;;;;;;;14.19;61.10;99428.22;5056051;28;20410;-71
2022/06/07 00:54:31;;;;;;;8.77;3.17;;;;;;;14.22;60.77;99424.69;5056182;28;20071;-78
2022/06/07 00:56:59;;;;;;;7.85;3.30;;;;;;;14.18;61.15;99420.19;5055977;28;20532;-71
2022/06/07 00:59:26;;;;;;;10.73;3.63;;;;;;;14.18;60.72;99420.19;5056226;28;20053;-75
2022/06/07 01:01:53;;;;;;;4.75;2.72;;;;;;;14.14;60.38;99427.66;5055789;28;20512;-73
2022/06/07 01:04:22;;;;;;;6.95;3.08;;;;;;;14.13;59.84;99423.22;5055984;28;20056;-71
2022/06/07 01:12:22;;;;;;;4.88;2.72;;;;;;;14.02;58.53;99419.31;5055814;28;20045;-76
2022/06/07 01:14:49;;;;;;;9.32;3.20;;;;;;;14.00;58.71;99427.25;5056082;28;20059;-76
2022/06/07 01:17:16;;;;;;;11.95;4.32;;;;;;;13.94;58.41;99409.09;5055829;28;20412;-77
2022/06/07 01:19:43;;;;;;;15.18;3.20;;;;;;;13.90;58.67;99416.59;5055417;28;20530;-71
2022/06/07 01:22:11;;;;;;;18.75;5.55;;;;;;;13.87;58.75;99411.72;5055729;28;20151;-72
2022/06/07 01:24:38;;;;;;;9.10;4.15;;;;;;;13.87;59.21;99417.31;5055622;28;20056;-72
2022/06/07 01:27:07;;;;;;;16.23;3.95;;;;;;;13.89;59.26;99414.97;5055045;28;20041;-76
2022/06/07 01:29:35;;;;;;;11.07;3.60;;;;;;;13.89;59.34;99421.38;5055189;28;20057;-72
2022/06/07 01:32:04;;;;;;;16.50;4.40;;;;;;;13.91;59.46;99430.22;5055482;28;20052;-72
2022/06/07 01:34:32;;;;;;;12.38;4.05;;;;;;;13.88;59.50;99425.34;5055373;28;20048;-71
2022/06/07 01:37:01;;;;;;;16.52;3.42;;;;;;;13.84;59.60;99423.63;5037651;28;20099;-71
2022/06/07 01:42:14;;;;;;;9.65;3.97;;;;;;;13.82;59.86;99439.94;5055417;28;20491;-72
2022/06/07 01:44:44;;;;;;;16.90;4.65;;;;;;;13.85;59.37;99430.81;5037556;28;20049;-72
2022/06/07 01:47:14;;;;;;;25.92;4.22;;;;;;;13.88;59.22;99441.28;5055162;28;20454;-76
2022/06/07 01:49:41;;;;;;;13.05;4.28;;;;;;;13.89;59.01;99435.34;5055482;28;20053;-78
2022/06/07 01:52:10;;;;;;;11.13;4.00;;;;;;;13.91;59.14;99435.00;5036200;28;20069;-76
2022/06/07 01:54:38;;;;;;;11.75;3.78;;;;;;;13.88;58.94;99438.50;5034903;28;20053;-74
2022/06/07 01:57:06;;;;;;;14.98;3.83;;;;;;;13.90;58.74;99437.00;5035140;28;20041;-71
2022/06/07 01:59:33;;;;;;;9.63;3.05;;;;;;;13.88;58.80;99438.50;5034948;28;20046;-72
2022/06/07 02:02:01;;;;;;;11.18;2.78;;;;;;;13.82;58.31;99437.13;5035846;28;20065;-72
2022/06/07 02:04:28;;;;;;;9.30;2.92;;;;;;;13.78;58.25;99453.00;5034924;28;20049;-72
2022/06/07 02:06:55;;;;;;;4.47;2.30;;;;;;;13.77;57.79;99446.59;5035150;28;20540;-72
2022/06/07 02:09:22;;;;;;;5.30;2.33;;;;;;;13.81;57.63;99452.28;5035026;28;20112;-72
2022/06/07 02:11:49;;;;;;;4.55;2.30;;;;;;;13.76;56.97;99446.94;5034980;28;20057;-72
2022/06/07 02:14:16;;;;;;;3.60;1.63;;;;;;;13.83;56.87;99449.97;5034781;28;20064;-72
2022/06/07 02:16:43;;;;;;;2.78;1.95;;;;;;;13.83;56.80;99445.16;5034830;28;20072;-72
2022/06/07 02:19:10;;;;;;;5.13;2.13;;;;;;;13.86;56.31;99452.06;5034347;28;20503;-72
2022/06/07 02:21:39;;;;;;;3.15;1.98;;;;;;;13.84;56.20;99446.00;5034710;28;20140;-72
2022/06/07 02:24:07;;;;;;;3.83;1.63;;;;;;;13.86;55.66;99452.06;5034878;28;20084;-71
2022/06/07 02:26:54;;;;;;;4.45;2.03;;;;;;;13.85;55.18;99451.22;5033019;28;20046;-72
2022/06/07 02:29:54;;;;;;;10.48;2.35;;;;;;;13.84;55.09;99457.19;5042839;28;20056;-71
2022/06/07 02:32:30;;;;;;;4.63;2.10;;;;;;;13.88;55.03;99456.09;5011211;28;20144;-71
2022/06/07 02:35:00;;;;;;;5.18;2.25;;;;;;;13.89;54.45;99451.34;5054224;28;20053;-72
2022/06/07 02:37:29;;;;;;;8.45;1.70;;;;;;;13.90;54.73;99455.75;5054402;28;20442;-69
2022/06/07 02:39:57;;;;;;;5.20;2.10;;;;;;;13.87;54.15;99451.69;5053798;28;20408;-69
2022/06/07 02:42:27;;;;;;;3.78;1.90;;;;;;;13.87;53.91;99453.66;5054189;28;20049;-70
2022/06/07 02:44:55;;;;;;;5.72;2.05;;;;;;;13.87;53.82;99462.06;5053842;28;20059;-69
2022/06/07 02:47:22;;;;;;;6.28;1.75;;;;;;;13.89;53.62;99459.72;5036738;28;20052;-69
2022/06/07 02:49:52;;;;;;;3.63;1.58;;;;;;;13.81;53.34;99455.91;5033925;28;20053;-68
2022/06/07 02:52:20;;;;;;;4.72;1.75;;;;;;;13.78;53.12;99465.00;5054066;28;20083;-69
2022/06/07 02:54:47;;;;;;;4.75;1.75;;;;;;;13.78;53.08;99458.59;5053810;28;20438;-69
2022/06/07 02:57:15;;;;;;;5.72;1.63;;;;;;;13.83;52.98;99469.53;5054125;28;20044;-70
2022/06/07 02:59:42;;;;;;;5.82;1.38;;;;;;;13.82;52.82;99463.13;5053763;28;20051;-69
2022/06/07 03:02:09;;;;;;;7.05;1.80;;;;;;;13.91;52.32;99474.16;5053865;28;20055;-69
2022/06/07 03:04:36;;;;;;;7.60;1.50;;;;;;;13.91;51.84;99469.38;5053831;28;20048;-70
2022/06/07 03:07:04;;;;;;;2.75;1.80;;;;;;;13.99;51.98;99478.78;5054109;28;20049;-70
2022/06/07 03:09:31;;;;;;;7.20;1.83;;;;;;;14.02;51.81;99476.09;5053945;28;20530;-70
2022/06/07 03:11:58;;;;;;;5.85;1.77;;;;;;;14.06;51.63;99473.38;5053113;28;20040;-70
2022/06/07 03:14:26;;;;;;;2.88;1.48;;;;;;;14.07;51.27;99472.22;5053377;28;20057;-69
2022/06/07 03:16:56;;;;;;;;;;;;;;;14.01;51.34;99471.66;5053940;28;20147;-69
2022/06/07 03:19:23;;;;;;;4.93;1.35;;;;;;;14.11;51.08;99479.53;5053063;28;19924;-70
2022/06/07 03:21:50;;;;;;;4.15;1.40;;;;;;;14.15;51.10;99479.66;5053497;28;20108;-69
2022/06/07 03:24:17;;;;;;;2.83;1.20;;;;;;;14.21;50.62;99475.41;5053383;28;20044;-69
2022/06/07 03:26:44;;;;;;;1.55;1.08;;;;;;;14.22;50.70;99479.84;5053170;28;20049;-70
2022/06/07 03:29:11;;;;;;;3.50;1.30;;;;;;;14.25;50.41;99476.34;5053123;28;20476;-70
2022/06/07 03:31:38;;;;;;;3.17;1.60;;;;;;;14.28;50.46;99472.84;5052915;28;20045;-70
2022/06/07 03:34:07;;;;;;;7.78;1.45;;;;;;;14.37;50.16;99476.28;5052820;28;20053;-70
2022/06/07 03:36:34;;;;;;;4.72;1.90;;;;;;;14.44;49.64;99470.84;5053189;28;20049;-70
2022/06/07 03:39:06;;;;;;;4.68;1.55;;;;;;;14.54;49.67;99476.72;5053078;28;20415;-70
2022/06/07 03:41:34;;;;;;;6.60;1.63;;;;;;;14.74;49.24;99483.25;5053227;28;20066;-68
2022/06/07 03:44:03;;;;;;;4.57;1.60;;;;;;;14.97;48.63;99486.22;5041753;28;20411;-68
2022/06/07 03:46:32;;;;;;;3.42;1.25;;;;;;;15.13;48.54;99493.41;5032842;28;20393;-68
2022/06/07 03:49:00;;;;;;;7.28;1.50;;;;;;;15.22;47.96;99480.00;5033008;28;20072;-70
2022/06/07 03:51:29;;;;;;;3.72;1.60;;;;;;;15.14;47.68;99471.81;5033110;28;20052;-68
2022/06/07 03:53:57;;;;;;;5.23;1.70;;;;;;;15.20;47.61;99484.38;5033199;28;20053;-69
2022/06/07 03:56:25;;;;;;;4.22;1.33;;;;;;;15.21;47.45;99471.97;5033015;28;20045;-69
2022/06/07 03:58:52;;;;;;;3.03;1.30;;;;;;;15.34;47.00;99485.50;5032771;28;20084;-70
2022/06/07 04:01:22;;;;;;;4.05;1.85;;;;;;;15.33;47.15;99483.88;5032928;28;20079;-68
2022/06/07 04:03:51;;;;;;;6.35;1.63;;;;;;;15.40;46.71;99483.28;5032805;28;20199;-68
2022/06/07 04:06:22;;;;;;;4.00;1.67;;;;;;;15.46;46.31;99479.84;5032935;28;20045;-70
2022/06/07 04:08:50;;;;;;;4.88;1.58;;;;;;;15.50;46.19;99485.50;5048809;28;20500;-68
2022/06/07 04:11:20;;;;;;;4.65;1.40;;;;;;;15.53;46.25;99491.19;5052738;28;20045;-69
2022/06/07 04:13:47;;;;;;;;;;;;;;;15.48;46.07;99493.47;5052952;28;20470;-69
2022/06/07 04:16:17;;;;;;;7.47;1.20;;;;;;;15.60;46.00;99491.34;5052726;28;20442;-72
2022/06/07 04:18:44;;;;;;;6.55;1.13;;;;;;;15.76;45.13;99492.13;5062572;28;20055;-72
2022/06/07 04:21:12;;;;;;;7.05;1.33;;;;;;;15.96;45.12;99492.94;5072646;28;20052;-73
2022/06/07 04:23:40;;;;;;;5.28;1.45;;;;;;;16.14;44.72;99492.09;5072757;28;20044;-72
2022/06/07 04:26:23;;;;;;;5.93;1.20;;;;;;;16.26;43.95;99496.75;5077166;28;20045;-72
2022/06/07 04:28:50;;;;;;;2.78;1.05;;;;;;;16.29;43.94;99491.19;5076650;28;20071;-72
2022/06/07 04:31:20;;;;;;;6.68;1.25;;;;;;;16.37;43.33;99497.75;5059271;28;20052;-71
2022/06/07 04:33:48;;;;;;;3.53;1.33;;;;;;;16.52;43.06;99487.63;5076683;28;20131;-72
2022/06/07 04:36:20;;;;;;;4.85;1.23;;;;;;;16.65;42.81;99486.25;5058412;28;20045;-73
2022/06/07 04:38:50;;;;;;;8.30;1.20;;;;;;;16.76;42.28;99479.66;5076483;28;20048;-73
2022/06/07 04:41:20;;;;;;;1.40;0.88;;;;;;;16.92;41.94;99479.50;5076818;28;20138;-73
2022/06/07 04:43:49;;;;;;;7.15;1.20;;;;;;;17.05;41.85;99483.75;5066834;28;20106;-73
2022/06/07 04:46:16;;;;;;;3.53;1.00;;;;;;;17.20;41.29;99485.59;5056590;28;20053;-73
2022/06/07 04:48:45;;;;;;;4.90;1.23;;;;;;;17.23;40.92;99487.66;5056212;28;20056;-73
2022/06/07 04:51:21;;;;;;;5.45;1.17;;;;;;;17.32;40.76;99496.63;5056773;28;20057;-70
2022/06/07 04:53:48;;;;;;;3.67;1.25;;;;;;;17.46;40.39;99483.63;5056045;28;20080;-70
2022/06/07 04:56:22;;;;;;;3.38;1.20;;;;;;;17.86;39.62;99486.56;5071744;28;20575;-70
2022/06/07 04:58:49;;;;;;;5.70;1.17;;;;;;;18.01;39.36;99487.59;5056013;28;20419;-71
2022/06/07 05:01:19;;;;;;;9.43;1.33;;;;;;;18.03;39.11;99485.22;5056044;28;20041;-69
2022/06/07 05:03:47;;;;;;;5.32;1.13;;;;;;;18.26;38.94;99488.69;5056042;28;20059;-70
2022/06/07 05:06:22;;;;;;;8.30;1.02;;;;;;;18.62;38.19;99481.47;5056000;28;20048;-69
2022/06/07 05:08:51;;;;;;;1.63;0.75;;;;;;;18.66;37.86;99493.56;5072761;28;20071;-69
2022/06/07 05:11:18;;;;;;;2.58;0.75;;;;;;;18.75;37.34;99477.16;5075790;28;20525;-69
2022/06/07 05:13:45;;;;;;;1.25;0.70;;;;;;;18.74;37.08;99493.25;5075753;28;20057;-70
2022/06/07 05:16:13;;;;;;;2.17;0.95;;;;;;;18.78;36.99;99488.47;5075952;28;20091;-69
2022/06/07 05:18:40;;;;;;;1.60;0.90;;;;;;;19.03;36.42;99483.84;5075405;28;20059;-70
2022/06/07 05:21:09;;;;;;;6.97;1.10;;;;;;;19.20;35.68;99483.19;5076548;28;20483;-69
2022/06/07 05:23:36;;;;;;;4.53;0.93;;;;;;;19.34;35.62;99486.16;5075843;28;20055;-69
2022/06/07 05:26:18;;;;;;;2.42;1.20;;;;;;;19.56;35.13;99487.09;5075661;28;20052;-70
2022/06/07 05:28:45;;;;;;;5.07;1.15;;;;;;;19.77;34.92;99479.56;5075158;28;20055;-71
2022/06/07 05:31:12;;;;;;;4.80;0.80;;;;;;;19.84;33.66;99488.06;5075712;28;20076;-69
2022/06/07 05:33:39;;;;;;;1.38;0.80;;;;;;;19.84;33.57;99482.41;5061841;28;20045;-69
2022/06/07 05:36:07;;;;;;;3.03;0.98;;;;;;;19.87;33.25;99490.09;5055074;28;20104;-69
2022/06/07 05:38:34;;;;;;;5.88;1.08;;;;;;;20.07;32.87;99486.97;5055105;28;20136;-69
2022/06/07 05:41:02;;;;;;;1.27;0.90;;;;;;;20.17;32.15;99481.38;5037326;28;20053;-69
2022/06/07 05:43:29;;;;;;;1.23;0.65;;;;;;;20.27;31.83;99488.25;5048623;28;20049;-70
2022/06/07 05:45:57;;;;;;;2.03;1.08;;;;;;;20.29;31.93;99488.69;5035262;28;20063;-69
2022/06/07 05:48:24;;;;;;;4.85;1.27;;;;;;;20.32;31.93;99496.38;5035910;28;20128;-69
2022/06/07 05:50:52;;;;;;;2.65;0.88;;;;;;;20.45;31.57;99487.13;5035355;28;20577;-70
2022/06/07 05:53:20;;;;;;;8.15;1.00;;;;;;;20.51;31.11;99490.34;5035180;28;20554;-69
2022/06/07 05:55:47;;;;;;;3.67;1.00;;;;;;;20.66;31.18;99484.34;5034942;28;20401;-69
2022/06/07 05:58:15;;;;;;;3.85;0.98;;;;;;;20.79;30.88;99487.59;5034966;28;20496;-70
2022/06/07 06:00:42;;;;;;;5.25;0.85;;;;;;;20.89;30.65;99490.44;5035044;28;20529;-71
2022/06/07 06:03:10;;;;;;;3.47;1.00;;;;;;;21.27;30.00;99488.84;5034873;28;20103;-69
2022/06/07 06:05:38;;;;;;;4.72;1.30;;;;;;;21.74;29.75;99479.91;5034677;28;20415;-72
2022/06/07 06:11:12;;;;;;;3.55;1.10;;;;;;;25.66;25.34;99487.66;5034923;28;20377;-73
2022/06/07 06:13:40;;;;;;;7.38;1.42;;;;;;;29.57;20.98;99468.34;5034945;28;20053;-67
2022/06/07 06:16:11;;;;;;;5.63;1.40;;;;;;;31.60;17.63;99473.97;5034872;28;20111;-73
2022/06/07 06:18:39;;;;;;;1.80;0.90;;;;;;;29.65;19.22;99472.56;5034482;28;20081;-69
2022/06/07 06:21:07;;;;;;;1.20;0.75;;;;;;;27.45;21.25;99481.69;5033640;28;20049;-71
2022/06/07 06:23:35;;;;;;;3.67;0.70;;;;;;;26.87;21.48;99481.88;5052395;28;20044;-68
2022/06/07 06:26:07;;;;;;;2.58;0.70;;;;;;;25.21;22.06;99477.84;5054653;28;20053;-70
2022/06/07 06:28:35;;;;;;;3.15;1.10;;;;;;;23.77;23.87;99474.13;5053969;28;20127;-71
2022/06/07 06:31:05;;;;;;;2.53;1.00;;;;;;;22.74;25.36;99477.03;5054320;28;20132;-70
2022/06/07 06:33:37;;;;;;;15.23;6.22;;;;;;;22.10;26.51;99480.59;5054193;28;20063;-74
2022/06/07 06:36:08;;;;;;;1.52;0.85;;;;;;;21.96;26.76;99469.34;5054386;28;20128;-70
2022/06/07 06:38:35;;;;;;;2.10;0.80;;;;;;;22.04;26.40;99465.22;5054344;28;20131;-70
2022/06/07 06:41:13;;;;;;;1.00;0.60;;;;;;;22.20;26.48;99466.38;5054208;28;20122;-70
2022/06/07 06:43:41;;;;;;;3.85;1.10;;;;;;;23.16;25.40;99464.56;5045461;28;20152;-70
2022/06/07 06:46:17;;;;;;;8.20;1.38;;;;;;;24.04;24.16;99463.69;5033828;28;20041;-72
2022/06/07 06:48:45;;;;;;;9.82;1.08;;;;;;;24.91;23.38;99461.66;5033662;28;20050;-71
2022/06/07 06:51:15;;;;;;;2.15;0.80;;;;;;;27.92;20.17;99450.63;5034415;28;20053;-73
2022/06/07 06:53:43;;;;;;;2.25;0.80;;;;;;;32.78;16.08;99460.38;5034069;28;20076;-71
2022/06/07 06:56:13;;;;;;;4.88;1.73;;;;;;;36.08;13.21;99450.81;5034035;28;20083;-71
2022/06/07 06:58:41;;;;;;;5.85;1.10;;;;;;;38.65;11.64;99449.50;5034468;28;20054;-73
2022/06/07 07:01:13;;;;;;;15.50;1.13;;;;;;;40.19;10.30;99457.25;5033817;28;20049;-75
2022/06/07 07:03:41;;;;;;;6.03;0.93;;;;;;;41.75;9.41;99464.31;5033809;28;20095;-70
2022/06/07 07:06:10;;;;;;;;;;;;;;;42.44;9.34;99455.78;5034305;28;20045;-71
2022/06/07 07:08:39;;;;;;;8.35;1.98;;;;;;;43.78;7.99;99453.78;5016092;28;19931;-73
2022/06/07 07:11:06;;;;;;;2.10;0.88;;;;;;;45.05;7.53;99459.78;5037603;28;20135;-70
2022/06/07 07:13:34;;;;;;;3.35;0.98;;;;;;;45.85;6.83;99456.56;5053488;28;20470;-70
2022/06/07 07:16:02;;;;;;;2.72;0.93;;;;;;;45.73;6.73;99461.16;5053589;28;20409;-70
2022/06/07 07:18:29;;;;;;;1.85;0.90;;;;;;;46.49;6.34;99455.78;5053891;28;20138;-70
2022/06/07 07:20:56;;;;;;;1.90;1.00;;;;;;;46.70;5.71;99457.22;5053717;28;20063;-69
2022/06/07 07:23:24;;;;;;;2.15;0.90;;;;;;;47.32;5.73;99450.88;5053453;28;20061;-74
2022/06/07 07:25:50;;;;;;;;;;;;;;;47.57;5.36;99449.75;5053680;28;20405;-69
2022/06/07 07:28:18;;;;;;;3.67;0.90;;;;;;;47.67;4.89;99447.75;5053175;28;20395;-70
2022/06/07 07:30:45;;;;;;;6.35;1.00;;;;;;;47.33;4.99;99434.78;5052947;28;20566;-74
2022/06/07 07:33:12;;;;;;;4.00;1.10;;;;;;;47.21;5.14;99445.41;5053243;28;20457;-73
2022/06/07 07:35:44;;;;;;;2.03;1.17;;;;;;;46.88;5.32;99446.50;5053474;28;20063;-70
2022/06/07 07:38:11;;;;;;;12.48;1.48;;;;;;;47.56;4.72;99439.31;5052842;28;20464;-74
2022/06/07 07:40:41;;;;;;;4.60;1.20;;;;;;;47.92;4.20;99450.91;5053001;28;20053;-71
2022/06/07 07:43:08;;;;;;;2.05;1.20;;;;;;;48.38;4.47;99440.50;5052672;28;20045;-69
2022/06/07 07:45:35;;;;;;;;;;;;;;;49.78;4.25;99440.00;5053217;28;20060;-72
2022/06/07 07:48:08;;;;;;;4.20;1.10;;;;;;;51.21;3.35;99444.88;5052455;28;19925;-70
2022/06/07 07:50:37;;;;;;;4.07;1.35;;;;;;;51.12;3.27;99450.75;5052646;28;20084;-73
2022/06/07 07:53:04;;;;;;;1.92;1.05;;;;;;;50.57;3.46;99442.44;5052973;28;20059;-69
2022/06/07 07:55:31;;;;;;;1.38;0.90;;;;;;;50.91;3.46;99440.16;5052691;28;20055;-71
2022/06/07 07:57:58;;;;;;;4.78;0.98;;;;;;;51.25;3.52;99432.53;5052534;28;20140;-71
2022/06/07 08:00:25;;;;;;;;;;;;;;;51.20;3.64;99436.59;5053049;28;20076;-68
2022/06/07 08:02:52;;;;;;;3.08;1.30;;;;;;;51.61;3.01;99433.31;5052758;28;20354;-75
2022/06/07 08:05:19;;;;;;;;;;;;;;;50.43;3.12;99432.38;5053040;28;20462;-72
2022/06/07 08:07:45;;;;;;;;;;;;;;;48.99;3.61;99441.81;5052604;28;19924;-73
2022/06/07 08:10:24;;;;;;;2.30;0.98;;;;;;;48.84;3.89;99430.06;5052343;28;19925;-73
2022/06/07 08:12:58;;;;;;;10.75;1.30;;;;;;;50.59;3.47;99430.75;5052506;28;20049;-69
2022/06/07 08:15:29;;;;;;;4.43;1.40;;;;;;;51.68;2.74;99429.47;5052324;28;20443;-74
2022/06/07 08:17:57;;;;;;;1.60;1.08;;;;;;;51.96;2.48;99416.84;5051583;28;20415;-69
2022/06/07 08:20:25;;;;;;;4.60;1.13;;;;;;;50.88;2.76;99425.81;5033095;28;20061;-74
2022/06/07 08:22:52;;;;;;;9.25;1.48;;;;;;;50.01;3.12;99410.94;5032577;28;20432;-71
2022/06/07 08:25:19;;;;;;;13.23;1.75;;;;;;;50.49;2.64;99415.09;5033368;28;20113;-75
2022/06/07 08:27:46;;;;;;;;;;;;;;;50.93;3.12;99395.88;5032615;28;20132;-70
2022/06/07 08:30:13;;;;;;;;;;;;;;;50.42;3.27;99398.19;5032911;28;19975;-73
2022/06/07 08:32:40;;;;;;;4.07;1.40;;;;;;;50.97;2.55;99402.13;5038157;28;19971;-73
2022/06/07 08:37:57;;;;;;;2.10;1.15;;;;;;;50.50;2.74;99405.59;5052527;28;20526;-72
2022/06/07 08:40:32;;;;;;;3.38;1.30;;;;;;;51.12;2.49;99407.06;5052371;28;20053;-73
2022/06/07 08:43:23;;;;;;;8.32;1.13;;;;;;;51.24;2.40;99405.09;5049429;28;20484;-70
2022/06/07 08:45:54;;;;;;;2.63;1.20;;;;;;;52.85;1.96;99409.59;5032409;28;20384;-72
2022/06/07 08:48:26;;;;;;;3.03;1.33;;;;;;;52.86;2.39;99398.50;5032304;28;20490;-73
2022/06/07 08:51:17;;;;;;;5.35;1.20;;;;;;;52.45;2.30;99401.38;5032689;28;20049;-70
2022/06/07 08:53:50;;;;;;;2.95;1.40;;;;;;;51.94;2.02;99389.97;5032530;28;20049;-73
2022/06/07 08:56:21;;;;;;;3.30;1.27;;;;;;;51.83;1.82;99386.84;5032306;28;20451;-70
2022/06/07 08:58:54;;;;;;;2.97;1.30;;;;;;;52.67;2.13;99392.63;5031940;28;20045;-75
2022/06/07 09:01:47;;;;;;;2.72;1.33;;;;;;;53.96;1.70;99386.53;5032310;28;20057;-70
2022/06/07 09:04:21;;;;;;;2.42;1.40;;;;;;;53.46;1.50;99385.91;5032425;28;20183;-72
2022/06/07 09:06:52;;;;;;;8.15;1.40;;;;;;;54.27;1.25;99392.38;5049661;28;20049;-71
2022/06/07 09:09:22;;;;;;;6.40;2.10;;;;;;;54.76;1.46;99379.34;5035166;28;20389;-71
2022/06/07 09:12:14;;;;;;;4.35;1.30;;;;;;;54.23;1.08;99379.41;5035822;28;20049;-72
2022/06/07 09:15:00;;;;;;;1.73;1.20;;;;;;;53.53;1.47;99378.97;5035805;28;20463;-71
2022/06/07 09:17:47;;;;;;;42.63;5.45;;;;;;;54.16;1.80;99372.25;5035780;28;20049;-74
2022/06/07 09:20:19;;;;;;;5.90;1.50;;;;;;;54.54;1.87;99374.88;5035372;28;20489;-71
2022/06/07 09:23:01;;;;;;;7.72;1.55;;;;;;;54.45;1.59;99375.72;5047789;28;20053;-71
2022/06/07 09:25:48;;;;;;;2.60;1.60;;;;;;;54.15;1.56;99372.91;5055467;28;20496;-70
2022/06/07 09:28:20;;;;;;;2.45;1.42;;;;;;;54.27;1.39;99362.59;5055252;28;20071;-73
2022/06/07 09:30:58;;;;;;;8.48;2.42;;;;;;;53.87;1.20;99365.72;5055462;28;20555;-69
2022/06/07 09:33:34;;;;;;;15.75;1.30;;;;;;;51.29;1.99;99361.72;5055199;28;20051;-71
2022/06/07 09:36:08;;;;;;;4.50;0.90;;;;;;;43.97;4.94;99360.63;5055358;28;20045;-74
2022/06/07 09:38:41;;;;;;;2.40;0.90;;;;;;;38.83;7.27;99350.06;5055218;28;20286;-70
2022/06/07 09:41:37;;;;;;;4.63;1.02;;;;;;;35.47;8.91;99345.78;5055450;28;20076;-72
2022/06/07 09:44:35;;;;;;;0.90;0.60;;;;;;;32.56;10.73;99345.34;5043315;28;20049;-71
2022/06/07 09:47:11;;;;;;;3.55;0.80;;;;;;;30.73;11.87;99337.63;5035103;28;20133;-73
2022/06/07 09:49:51;;;;;;;10.18;0.90;;;;;;;29.58;12.54;99353.19;5033364;28;20121;-71
2022/06/07 09:52:25;;;;;;;3.60;0.90;;;;;;;28.43;13.59;99352.22;5034658;28;20069;-70
2022/06/07 09:55:20;;;;;;;8.38;0.88;;;;;;;27.83;14.33;99348.31;5034676;28;20049;-73
2022/06/07 09:58:24;;;;;;;2.13;0.80;;;;;;;27.01;14.99;99341.63;5034952;28;20049;-70
2022/06/07 10:00:59;;;;;;;1.98;0.73;;;;;;;26.35;15.79;99342.84;5035041;28;20045;-74
2022/06/07 10:03:39;;;;;;;4.07;0.68;;;;;;;25.77;15.80;99343.72;5034936;28;20060;-74
2022/06/07 10:06:40;;;;;;;2.13;0.80;;;;;;;25.15;16.38;99343.72;5035226;28;20057;-70
2022/06/07 10:09:25;;;;;;;2.45;0.73;;;;;;;24.90;17.49;99343.38;5027519;28;20049;-72
2022/06/07 10:12:02;;;;;;;3.08;0.70;;;;;;;24.83;17.40;99347.16;5045654;28;20098;-73
2022/06/07 10:14:47;;;;;;;2.95;0.93;;;;;;;24.66;17.98;99341.75;5054587;28;20143;-70
2022/06/07 10:17:47;;;;;;;6.82;0.88;;;;;;;24.54;18.14;99342.34;5054718;28;20515;-72
2022/06/07 10:20:40;;;;;;;2.40;0.90;;;;;;;24.34;17.82;99335.75;5054339;28;20515;-71
2022/06/07 10:23:28;;;;;;;3.90;0.80;;;;;;;23.94;18.34;99331.81;5053169;28;20063;-72
2022/06/07 10:26:04;;;;;;;14.02;0.98;;;;;;;23.73;18.99;99332.13;5054410;28;20048;-74
2022/06/07 10:28:51;;;;;;;1.55;0.70;;;;;;;23.64;19.05;99326.16;5054384;28;20041;-73
2022/06/07 10:31:27;;;;;;;3.05;1.40;;;;;;;23.52;19.73;99340.91;5054604;28;20048;-70
2022/06/07 10:34:00;;;;;;;2.25;0.93;;;;;;;23.44;20.16;99330.06;5054237;28;20131;-70
2022/06/07 10:36:51;;;;;;;1.73;0.70;;;;;;;23.26;19.61;99322.56;5054660;28;20106;-70
2022/06/07 10:39:59;;;;;;;3.22;1.20;;;;;;;23.32;19.83;99329.38;5054255;28;20559;-71
2022/06/07 10:42:56;;;;;;;2.10;0.88;;;;;;;23.20;19.88;99332.72;5043833;28;20098;-72
2022/06/07 10:45:28;;;;;;;3.28;0.90;;;;;;;23.11;19.49;99326.75;5034460;28;20081;-72
2022/06/07 10:48:10;;;;;;;2.35;0.70;;;;;;;22.98;19.34;99322.81;5034256;28;20054;-74
2022/06/07 10:51:01;;;;;;;5.07;1.92;;;;;;;22.86;19.56;99328.22;5034050;28;20094;-69
2022/06/07 10:53:47;;;;;;;2.35;0.90;;;;;;;22.75;20.04;99325.50;5034111;28;20049;-73
2022/06/07 10:56:29;;;;;;;2.65;0.65;;;;;;;22.76;19.99;99324.25;5034320;28;20068;-72
2022/06/07 11:01:14;;;;;;;5.13;0.80;;;;;;;22.89;19.68;99322.50;5110948;27;20373;-74
2022/06/07 11:04:01;;;;;;;3.27;1.13;;;;;;;22.89;19.80;99325.34;5125998;28;20101;-74
2022/06/07 11:09:41;;;;;;;4.25;0.60;;;;;;;22.83;18.82;99314.88;5110587;28;20464;-71
2022/06/07 11:12:18;;;;;;;1.08;0.60;;;;;;;22.64;18.57;99312.63;5110412;28;20040;-70
2022/06/07 11:14:54;;;;;;;50.47;16.17;;;;;;;22.54;18.56;99313.53;5109290;28;20090;-71
2022/06/07 11:17:47;;;;;;;3.25;1.08;;;;;;;22.51;18.75;99315.19;5110534;28;20139;-70
2022/06/07 11:20:21;;;;;;;6.47;1.00;;;;;;;22.49;19.26;99311.09;5109329;28;20095;-70
2022/06/07 11:23:13;;;;;;;1.55;0.60;;;;;;;22.57;19.23;99312.69;5110160;28;20054;-74
2022/06/07 11:26:02;;;;;;;2.20;0.60;;;;;;;22.64;19.70;99310.59;5107064;28;20055;-74
2022/06/07 11:28:32;;;;;;;4.32;0.70;;;;;;;22.59;19.36;99316.72;5110022;28;20098;-70
2022/06/07 11:31:21;;;;;;;2.83;0.70;;;;;;;22.59;19.07;99298.91;5109676;28;20040;-69
2022/06/07 11:33:51;;;;;;;4.25;0.88;;;;;;;22.61;19.27;99293.59;5094439;28;20500;-68
2022/06/07 11:36:24;;;;;;;;;;;;;;;22.42;19.59;99299.81;5089887;28;20074;-73
2022/06/07 11:39:20;;;;;;;2.88;0.95;;;;;;;22.40;19.28;99294.56;5089464;28;19924;-68
2022/06/07 11:42:16;;;;;;;1.45;0.80;;;;;;;22.40;19.56;99303.06;5089527;28;20056;-74
2022/06/07 11:44:43;;;;;;;6.00;0.93;;;;;;;22.24;19.54;99305.66;5106446;28;20048;-72
2022/06/07 11:47:10;;;;;;;3.75;0.70;;;;;;;22.21;19.72;99295.13;5109950;28;20048;-71
2022/06/07 11:49:46;;;;;;;2.00;0.68;;;;;;;22.18;20.15;99292.31;5109864;28;20082;-69
2022/06/07 11:52:13;;;;;;;4.85;0.90;;;;;;;22.01;20.36;99299.72;5109612;28;20571;-73
2022/06/07 11:54:48;;;;;;;4.53;0.80;;;;;;;22.04;20.38;99304.56;5108079;28;20043;-72
2022/06/07 11:57:40;;;;;;;7.65;1.00;;;;;;;22.07;20.30;99295.22;5109412;28;20169;-68
2022/06/07 12:00:16;;;;;;;11.75;0.88;;;;;;;22.23;20.69;99292.69;5109139;28;20055;-68
2022/06/07 12:03:00;;;;;;;1.98;0.80;;;;;;;22.28;21.04;99282.91;5110249;28;20044;-71
2022/06/07 12:05:37;;;;;;;5.45;2.28;;;;;;;22.26;20.62;99283.34;5110614;28;20044;-68
2022/06/07 12:08:34;;;;;;;1.52;0.75;;;;;;;22.35;20.12;99268.72;5110104;28;20558;-70
2022/06/07 12:11:21;;;;;;;9.57;3.15;;;;;;;22.01;19.85;99274.22;5102784;28;20087;-74
2022/06/07 12:13:52;;;;;;;1.50;0.70;;;;;;;21.84;19.84;99277.97;5095657;28;20048;-74
2022/06/07 12:16:35;;;;;;;5.25;1.27;;;;;;;21.80;19.89;99268.72;5095645;28;20130;-73
2022/06/07 12:19:06;;;;;;;1.90;0.90;;;;;;;21.86;20.19;99267.06;5083495;28;20158;-74
2022/06/07 12:21:40;;;;;;;2.13;0.60;;;;;;;21.94;20.64;99260.13;5074839;28;20137;-71